createdAt,value
2022-10-04T00:00:26.501Z,1.80
2022-10-04T00:03:27.591Z,2.40
2022-10-04T00:06:02.228Z,2.40
2022-10-04T00:08:43.534Z,2.40
2022-10-04T00:11:21.429Z,2.30
2022-10-04T00:13:58.548Z,1.80
2022-10-04T00:16:34.074Z,2.00
2022-10-04T00:19:38.403Z,1.80
2022-10-04T00:22:27.568Z,3.00
2022-10-04T00:25:20.541Z,2.90
2022-10-04T00:28:29.273Z,2.10
2022-10-04T00:31:16.230Z,2.80
2022-10-04T00:33:50.281Z,2.10
2022-10-04T00:36:49.418Z,4.60
2022-10-04T00:39:40.363Z,7.40
2022-10-04T00:42:51.282Z,9.40
2022-10-04T00:45:29.612Z,4.30
2022-10-04T00:48:13.154Z,11.40
2022-10-04T00:50:51.416Z,3.80
2022-10-04T00:53:38.812Z,3.90
2022-10-04T00:56:15.392Z,3.50
2022-10-04T00:59:05.061Z,4.90
2022-10-04T01:01:39.231Z,2.40
2022-10-04T01:04:25.585Z,3.50
2022-10-04T01:06:59.034Z,4.90
2022-10-04T01:09:34.850Z,9.40
2022-10-04T01:12:12.058Z,3.70
2022-10-04T01:14:52.974Z,3.80
2022-10-04T01:17:25.124Z,4.20
2022-10-04T01:19:58.067Z,3.20
2022-10-04T01:22:39.161Z,4.00
2022-10-04T01:25:12.436Z,3.00
2022-10-04T01:27:47.296Z,4.00
2022-10-04T01:32:52.031Z,2.30
2022-10-04T01:35:24.233Z,3.60
2022-10-04T01:37:56.441Z,2.90
2022-10-04T01:40:28.881Z,2.50
2022-10-04T01:43:06.398Z,2.90
2022-10-04T01:45:44.417Z,2.80
2022-10-04T01:48:22.328Z,2.50
2022-10-04T01:51:01.041Z,2.80
2022-10-04T01:53:37.014Z,2.30
2022-10-04T01:56:15.331Z,2.30
2022-10-04T01:58:50.601Z,2.00
2022-10-04T02:01:31.338Z,2.40
2022-10-04T02:04:09.366Z,2.30
2022-10-04T02:06:44.400Z,2.60
2022-10-04T02:09:21.002Z,2.80
2022-10-04T02:11:54.432Z,2.90
2022-10-04T02:14:31.935Z,1.90
2022-10-04T02:17:09.286Z,2.40
2022-10-04T02:19:45.196Z,2.30
2022-10-04T02:22:18.761Z,2.00
2022-10-04T02:24:51.884Z,2.00
2022-10-04T02:27:30.159Z,2.00
2022-10-04T02:30:09.340Z,2.00
2022-10-04T02:33:01.410Z,2.40
2022-10-04T02:35:36.515Z,2.30
2022-10-04T02:38:15.191Z,1.80
2022-10-04T02:40:57.270Z,1.80
2022-10-04T02:43:35.837Z,2.20
2022-10-04T02:46:13.546Z,1.60
2022-10-04T02:48:49.050Z,2.10
2022-10-04T02:51:26.974Z,1.90
2022-10-04T02:54:08.564Z,1.80
2022-10-04T02:56:41.158Z,1.90
2022-10-04T02:59:19.184Z,1.70
2022-10-04T03:01:56.479Z,1.20
2022-10-04T03:04:32.427Z,1.30
2022-10-04T03:07:07.501Z,1.40
2022-10-04T03:09:41.536Z,1.60
2022-10-04T03:12:16.245Z,1.50
2022-10-04T03:17:19.377Z,1.30
2022-10-04T03:19:52.637Z,1.60
2022-10-04T03:22:25.482Z,1.80
2022-10-04T03:24:59.271Z,2.00
2022-10-04T03:27:34.064Z,2.70
2022-10-04T03:32:38.826Z,7.50
2022-10-04T03:35:29.633Z,10.10
2022-10-04T03:38:03.248Z,5.00
2022-10-04T03:40:37.902Z,19.00
2022-10-04T03:43:13.606Z,59.00
2022-10-04T03:45:46.039Z,80.00
2022-10-04T03:48:29.981Z,29.10
2022-10-04T03:51:03.628Z,18.40
2022-10-04T03:53:43.370Z,17.20
2022-10-04T03:56:20.112Z,17.30
2022-10-04T03:58:53.370Z,14.60
2022-10-04T04:01:40.612Z,41.60
2022-10-04T04:04:22.428Z,32.50
2022-10-04T04:07:04.232Z,64.40
2022-10-04T04:09:44.042Z,46.40
2022-10-04T04:12:22.395Z,47.50
2022-10-04T04:14:55.536Z,17.40
2022-10-04T04:17:39.113Z,20.20
2022-10-04T04:20:21.190Z,11.70
2022-10-04T04:23:06.735Z,4.00
2022-10-04T04:25:42.155Z,8.60
2022-10-04T04:28:26.505Z,4.90
2022-10-04T04:31:04.286Z,4.10
2022-10-04T04:33:46.302Z,4.30
2022-10-04T04:36:19.224Z,3.40
2022-10-04T04:39:09.031Z,2.50
2022-10-04T04:41:43.811Z,3.30
2022-10-04T04:44:20.980Z,4.60
2022-10-04T04:46:53.761Z,2.30
2022-10-04T04:49:26.066Z,3.80
2022-10-04T04:51:59.134Z,2.10
2022-10-04T04:54:31.302Z,2.40
2022-10-04T04:57:04.029Z,3.90
2022-10-04T04:59:37.204Z,6.20
2022-10-04T05:02:36.445Z,2.80
2022-10-04T05:05:23.606Z,2.50
2022-10-04T05:08:14.892Z,4.10
2022-10-04T05:10:52.058Z,2.80
2022-10-04T05:13:27.264Z,3.70
2022-10-04T05:16:02.334Z,3.20
2022-10-04T05:18:35.527Z,47.00
2022-10-04T05:21:13.931Z,26.10
2022-10-04T05:23:45.994Z,15.20
2022-10-04T05:26:26.059Z,5.70
2022-10-04T05:29:01.499Z,3.50
2022-10-04T05:31:45.848Z,3.10
2022-10-04T05:34:27.248Z,2.80
2022-10-04T05:37:25.443Z,2.90
2022-10-04T05:40:07.421Z,17.90
2022-10-04T05:42:45.638Z,3.80
2022-10-04T05:45:25.206Z,2.50
2022-10-04T05:47:59.206Z,3.90
2022-10-04T05:50:36.245Z,2.80
2022-10-04T05:53:28.484Z,2.70
2022-10-04T05:56:13.811Z,2.50
2022-10-04T05:59:00.376Z,3.00
2022-10-04T06:01:43.265Z,2.20
2022-10-04T06:04:35.788Z,2.00
2022-10-04T06:07:21.671Z,2.20
2022-10-04T06:10:26.222Z,2.30
2022-10-04T06:13:05.356Z,2.30
2022-10-04T06:15:54.353Z,1.80
2022-10-04T06:18:44.318Z,2.00
2022-10-04T06:21:38.737Z,2.40
2022-10-04T06:24:17.910Z,2.00
2022-10-04T06:26:55.504Z,2.60
2022-10-04T06:29:33.787Z,2.10
2022-10-04T06:32:29.447Z,2.00
2022-10-04T06:35:18.645Z,1.90
2022-10-04T06:38:13.085Z,1.80
2022-10-04T06:41:23.706Z,1.90
2022-10-04T06:44:13.904Z,1.80
2022-10-04T06:46:50.879Z,1.80
2022-10-04T06:49:35.529Z,1.90
2022-10-04T06:52:22.840Z,2.00
2022-10-04T06:55:21.082Z,1.70
2022-10-04T06:58:19.584Z,1.80
2022-10-04T07:00:58.624Z,1.60
2022-10-04T07:03:38.476Z,1.60
2022-10-04T07:06:11.875Z,2.70
2022-10-04T07:08:49.277Z,1.70
2022-10-04T07:11:26.015Z,2.10
2022-10-04T07:14:05.901Z,2.00
2022-10-04T07:16:48.588Z,1.60
2022-10-04T07:19:41.515Z,1.80
2022-10-04T07:22:23.662Z,1.70
2022-10-04T07:25:07.658Z,1.30
2022-10-04T07:28:11.140Z,3.20
2022-10-04T07:30:48.631Z,2.10
2022-10-04T07:33:25.289Z,1.40
2022-10-04T07:36:07.604Z,1.60
2022-10-04T07:38:47.679Z,1.50
2022-10-04T07:41:27.886Z,1.70
2022-10-04T07:44:04.745Z,2.20
2022-10-04T07:46:56.737Z,2.20
2022-10-04T07:49:28.922Z,4.40
2022-10-04T07:52:29.884Z,1.80
2022-10-04T07:55:15.102Z,1.80
2022-10-04T08:00:29.599Z,1.30
2022-10-04T08:03:21.631Z,1.40
2022-10-04T08:06:02.031Z,1.60
2022-10-04T08:08:46.976Z,1.50
2022-10-04T08:11:30.276Z,1.40
2022-10-04T08:14:11.249Z,1.70
2022-10-04T08:16:55.903Z,1.50
2022-10-04T08:19:42.083Z,1.60
2022-10-04T08:22:26.576Z,2.30
2022-10-04T08:25:06.596Z,2.20
2022-10-04T08:28:14.184Z,1.60
2022-10-04T08:31:09.408Z,2.10
2022-10-04T08:33:55.414Z,1.70
2022-10-04T08:36:43.780Z,2.10
2022-10-04T08:39:35.305Z,1.70
2022-10-04T08:42:52.836Z,1.70
2022-10-04T08:46:04.689Z,1.50
2022-10-04T08:49:09.394Z,1.60
2022-10-04T08:52:03.306Z,1.80
2022-10-04T08:55:05.634Z,1.60
2022-10-04T08:57:57.416Z,1.90
2022-10-04T09:00:46.989Z,2.00
2022-10-04T09:03:44.419Z,2.10
2022-10-04T09:06:36.478Z,1.90
2022-10-04T09:09:35.989Z,1.80
2022-10-04T09:12:34.884Z,1.70
2022-10-04T09:15:27.354Z,1.70
2022-10-04T09:18:15.968Z,1.60
2022-10-04T09:21:02.199Z,1.70
2022-10-04T09:23:59.024Z,1.70
2022-10-04T09:26:44.990Z,2.30
2022-10-04T09:29:32.807Z,2.20
2022-10-04T09:32:34.915Z,1.50
2022-10-04T09:35:32.165Z,1.70
2022-10-04T09:38:21.198Z,1.40
2022-10-04T09:41:15.036Z,1.90
2022-10-04T09:44:25.335Z,1.70
2022-10-04T09:47:14.376Z,1.80
2022-10-04T09:50:35.801Z,1.80
2022-10-04T09:53:21.752Z,1.80
2022-10-04T09:56:11.412Z,1.40
2022-10-04T09:59:22.239Z,1.70
2022-10-04T10:02:28.358Z,1.50
2022-10-04T10:05:24.257Z,2.00
2022-10-04T10:08:09.941Z,1.70
2022-10-04T10:11:09.622Z,1.20
2022-10-04T10:14:18.475Z,2.30
2022-10-04T10:17:04.722Z,1.60
2022-10-04T10:20:04.731Z,1.60
2022-10-04T10:23:07.224Z,1.70
2022-10-04T10:25:53.493Z,1.80
2022-10-04T10:28:47.932Z,1.80
2022-10-04T10:31:48.362Z,1.60
2022-10-04T10:34:52.413Z,1.80
2022-10-04T10:37:41.960Z,2.50
2022-10-04T10:40:39.339Z,5.70
2022-10-04T10:43:38.550Z,2.90
2022-10-04T10:46:23.662Z,5.00
2022-10-04T10:51:59.719Z,6.40
2022-10-04T10:54:59.882Z,6.30
2022-10-04T10:57:53.756Z,2.80
2022-10-04T11:00:33.616Z,2.00
2022-10-04T11:03:59.952Z,2.60
2022-10-04T11:07:00.049Z,1.40
2022-10-04T11:09:45.671Z,1.20
2022-10-04T11:12:51.294Z,2.10
2022-10-04T11:16:01.938Z,2.80
2022-10-04T11:19:07.415Z,1.70
2022-10-04T11:22:17.382Z,1.60
2022-10-04T11:25:36.197Z,2.40
2022-10-04T11:28:17.163Z,2.30
2022-10-04T11:31:26.193Z,2.10
2022-10-04T11:34:19.438Z,1.40
2022-10-04T11:37:05.606Z,1.60
2022-10-04T11:40:09.970Z,1.70
2022-10-04T11:43:01.836Z,20.50
2022-10-04T11:46:08.541Z,4.60
2022-10-04T11:49:00.210Z,2.20
2022-10-04T11:52:02.474Z,3.20
2022-10-04T11:55:23.747Z,1.40
2022-10-04T11:58:00.380Z,1.30
2022-10-04T12:01:00.104Z,1.20
2022-10-04T12:03:59.035Z,1.20
2022-10-04T12:06:45.959Z,1.60
2022-10-04T12:09:28.151Z,1.50
2022-10-04T12:12:40.272Z,1.30
2022-10-04T12:15:38.637Z,1.60
2022-10-04T12:18:46.285Z,2.30
2022-10-04T12:21:31.060Z,1.50
2022-10-04T12:24:15.959Z,2.40
2022-10-04T12:27:17.725Z,1.90
2022-10-04T12:30:21.771Z,4.20
2022-10-04T12:33:05.359Z,2.20
2022-10-04T12:35:50.144Z,1.60
2022-10-04T12:38:43.333Z,4.10
2022-10-04T12:41:31.982Z,4.50
2022-10-04T12:44:15.512Z,3.50
2022-10-04T12:46:58.773Z,9.70
2022-10-04T12:49:45.755Z,10.30
2022-10-04T12:52:24.036Z,13.10
2022-10-04T12:55:03.885Z,5.80
2022-10-04T12:57:49.754Z,4.60
2022-10-04T13:00:24.708Z,9.00
2022-10-04T13:03:21.826Z,7.30
2022-10-04T13:06:05.205Z,8.90
2022-10-04T13:09:02.770Z,9.40
2022-10-04T13:12:09.297Z,12.60
2022-10-04T13:14:56.175Z,9.60
2022-10-04T13:17:44.862Z,10.90
2022-10-04T13:20:45.837Z,7.70
2022-10-04T13:23:31.482Z,4.50
2022-10-04T13:26:16.903Z,7.80
2022-10-04T13:29:03.039Z,7.90
2022-10-04T13:31:42.802Z,8.50
2022-10-04T13:34:26.790Z,6.70
2022-10-04T13:37:11.038Z,5.40
2022-10-04T13:40:05.044Z,6.60
2022-10-04T13:42:55.641Z,5.10
2022-10-04T13:45:41.741Z,4.50
2022-10-04T13:48:30.761Z,3.50
2022-10-04T13:51:16.301Z,2.60
2022-10-04T13:54:17.417Z,2.60
2022-10-04T13:57:13.331Z,3.60
2022-10-04T13:59:49.346Z,3.20
2022-10-04T14:03:02.993Z,4.60
2022-10-04T14:06:12.373Z,24.00
2022-10-04T14:09:11.690Z,69.80
2022-10-04T14:12:13.204Z,56.40
2022-10-04T14:15:12.214Z,6.40
2022-10-04T14:18:04.713Z,2.00
2022-10-04T14:21:19.913Z,1.10
2022-10-04T14:24:07.931Z,1.30
2022-10-04T14:27:17.891Z,1.30
2022-10-04T14:30:21.027Z,1.80
2022-10-04T14:33:26.163Z,2.20
2022-10-04T14:36:21.544Z,1.30
2022-10-04T14:39:14.008Z,0.90
2022-10-04T14:42:08.856Z,1.30
2022-10-04T14:45:05.529Z,1.20
2022-10-04T14:48:18.145Z,1.30
2022-10-04T14:51:04.550Z,1.30
2022-10-04T14:53:43.273Z,1.10
2022-10-04T14:56:40.195Z,1.40
2022-10-04T14:59:34.098Z,1.10
2022-10-04T15:02:24.133Z,9.90
2022-10-04T15:05:28.697Z,4.40
2022-10-04T15:08:30.157Z,2.40
2022-10-04T15:11:06.955Z,1.70
2022-10-04T15:13:50.061Z,2.00
2022-10-04T15:16:34.975Z,3.10
2022-10-04T15:19:12.796Z,4.00
2022-10-04T15:22:01.869Z,3.40
2022-10-04T15:24:47.971Z,3.00
2022-10-04T15:27:51.714Z,3.00
2022-10-04T15:30:30.991Z,5.10
2022-10-04T15:33:30.703Z,9.40
2022-10-04T15:36:28.644Z,18.60
2022-10-04T15:39:05.207Z,7.70
2022-10-04T15:41:50.605Z,10.00
2022-10-04T15:44:44.434Z,22.10
2022-10-04T15:47:26.457Z,15.80
2022-10-04T15:50:11.099Z,9.30
2022-10-04T15:53:20.173Z,8.80
2022-10-04T15:56:07.935Z,12.70
2022-10-04T15:58:56.616Z,14.70
2022-10-04T16:01:47.579Z,12.80
2022-10-04T16:04:48.188Z,14.20
2022-10-04T16:07:42.844Z,12.40
2022-10-04T16:10:31.266Z,12.90
2022-10-04T16:13:41.505Z,12.30
2022-10-04T16:20:21.336Z,46.20
2022-10-04T16:23:24.492Z,36.00
2022-10-04T16:25:57.895Z,24.50
2022-10-04T16:28:51.676Z,17.60
2022-10-04T16:31:41.324Z,57.70
2022-10-04T16:34:26.033Z,37.10
2022-10-04T16:37:05.294Z,70.60
2022-10-04T16:39:58.353Z,91.90
2022-10-04T16:42:40.777Z,66.40
2022-10-04T16:45:40.551Z,37.90
2022-10-04T16:48:28.736Z,35.20
2022-10-04T16:51:22.348Z,30.70
2022-10-04T16:54:04.799Z,32.20
2022-10-04T16:57:28.800Z,44.80
2022-10-04T17:00:22.005Z,44.00
2022-10-04T17:03:07.844Z,68.70
2022-10-04T17:05:56.499Z,53.10
2022-10-04T17:08:47.785Z,63.60
2022-10-04T17:11:44.108Z,119.50
2022-10-04T17:14:48.248Z,60.70
2022-10-04T17:17:31.835Z,58.00
2022-10-04T17:20:11.491Z,48.10
2022-10-04T17:22:55.264Z,43.10
2022-10-04T17:25:34.531Z,63.80
2022-10-04T17:28:26.319Z,77.30
2022-10-04T17:31:12.674Z,64.00
2022-10-04T17:33:53.861Z,62.70
2022-10-04T17:36:49.642Z,84.60
2022-10-04T17:39:44.549Z,91.70
2022-10-04T17:42:27.412Z,89.60
2022-10-04T17:45:15.496Z,45.90
2022-10-04T17:48:15.376Z,48.40
2022-10-04T17:51:13.730Z,56.10
2022-10-04T17:54:10.107Z,38.30
2022-10-04T17:56:47.274Z,26.60
2022-10-04T17:59:30.004Z,15.30
2022-10-04T18:02:11.853Z,13.90
2022-10-04T18:04:54.637Z,42.40
2022-10-04T18:07:28.846Z,18.10
2022-10-04T18:10:11.686Z,11.80
2022-10-04T18:13:05.494Z,15.20
2022-10-04T18:15:44.683Z,9.60
2022-10-04T18:18:24.637Z,8.60
2022-10-04T18:21:22.001Z,8.90
2022-10-04T18:24:17.768Z,10.90
2022-10-04T18:27:06.267Z,8.10
2022-10-04T18:29:48.436Z,8.70
2022-10-04T18:32:38.643Z,10.00
2022-10-04T18:35:31.727Z,9.60
2022-10-04T18:38:27.032Z,13.70
2022-10-04T18:41:06.610Z,21.00
2022-10-04T18:43:55.612Z,19.30
2022-10-04T18:46:52.415Z,23.40
2022-10-04T18:49:32.795Z,49.60
2022-10-04T18:52:27.765Z,292.20
2022-10-04T18:55:20.982Z,353.30
2022-10-04T18:58:37.485Z,380.60
2022-10-04T19:01:41.430Z,444.10
2022-10-04T19:04:23.863Z,469.70
2022-10-04T19:07:07.691Z,229.10
2022-10-04T19:10:01.746Z,106.80
2022-10-04T19:12:50.821Z,89.00
2022-10-04T19:15:35.119Z,225.00
2022-10-04T19:18:30.065Z,194.40
2022-10-04T19:21:10.699Z,190.20
2022-10-04T19:23:52.741Z,116.00
2022-10-04T19:26:43.658Z,86.30
2022-10-04T19:29:27.083Z,86.90
2022-10-04T19:32:05.314Z,136.70
2022-10-04T19:34:48.396Z,80.70
2022-10-04T19:37:27.049Z,82.90
2022-10-04T19:40:10.313Z,88.50
2022-10-04T19:42:53.263Z,88.30
2022-10-04T19:45:39.047Z,77.90
2022-10-04T19:48:24.230Z,62.30
2022-10-04T19:51:03.837Z,63.50
2022-10-04T19:53:42.662Z,114.60
2022-10-04T19:56:21.305Z,66.00
2022-10-04T19:59:03.966Z,159.00
2022-10-04T20:01:36.575Z,65.70
2022-10-04T20:04:32.741Z,144.40
2022-10-04T20:07:11.599Z,246.00
2022-10-04T20:10:08.739Z,279.70
2022-10-04T20:12:42.677Z,67.20
2022-10-04T20:15:27.473Z,59.80
2022-10-04T20:18:01.475Z,38.00
2022-10-04T20:21:09.687Z,33.40
2022-10-04T20:23:59.205Z,32.40
2022-10-04T20:26:54.516Z,39.30
2022-10-04T20:30:06.464Z,24.00
2022-10-04T20:32:59.455Z,20.10
2022-10-04T20:36:09.641Z,18.30
2022-10-04T20:39:03.029Z,44.30
2022-10-04T20:42:22.722Z,75.80
2022-10-04T20:45:22.411Z,97.60
2022-10-04T20:47:57.844Z,46.20
2022-10-04T20:50:39.041Z,30.00
2022-10-04T20:53:18.954Z,21.70
2022-10-04T20:55:54.102Z,58.30
2022-10-04T20:58:33.050Z,119.20
2022-10-04T21:01:40.062Z,59.30
2022-10-04T21:04:30.040Z,279.00
2022-10-04T21:07:06.694Z,95.60
2022-10-04T21:09:41.190Z,63.70
2022-10-04T21:12:30.646Z,103.10
2022-10-04T21:15:18.793Z,106.70
2022-10-04T21:18:04.924Z,58.00
2022-10-04T21:20:48.468Z,138.00
2022-10-04T21:23:31.478Z,121.90
2022-10-04T21:26:22.977Z,95.30
2022-10-04T21:28:58.134Z,77.30
2022-10-04T21:31:30.637Z,53.20
2022-10-04T21:34:02.972Z,84.00
2022-10-04T21:36:35.325Z,28.80
2022-10-04T21:39:07.689Z,59.40
2022-10-04T21:41:40.022Z,42.50
2022-10-04T21:44:12.548Z,75.70
2022-10-04T21:46:45.244Z,21.50
2022-10-04T21:49:17.645Z,56.70
2022-10-04T21:51:50.059Z,18.10
2022-10-04T21:54:22.740Z,25.50
2022-10-04T21:56:55.160Z,15.00
2022-10-04T21:59:27.560Z,21.20
2022-10-04T22:01:59.979Z,423.00
2022-10-04T22:19:24.526Z,173.50
2022-10-04T22:21:57.025Z,101.40
2022-10-04T22:24:29.426Z,91.70
2022-10-04T22:27:02.473Z,288.60
2022-10-04T22:29:36.869Z,72.40
2022-10-04T22:32:18.280Z,126.10
2022-10-04T22:34:51.483Z,87.10
2022-10-04T22:37:26.106Z,36.00
2022-10-04T22:39:58.575Z,44.20
2022-10-04T22:42:33.271Z,580.20
2022-10-04T22:45:07.506Z,53.60
2022-10-04T22:47:39.790Z,129.50
2022-10-04T22:50:26.428Z,58.20
2022-10-04T22:52:59.213Z,297.20
2022-10-04T22:55:31.627Z,44.50
2022-10-04T22:58:04.212Z,45.60
2022-10-04T23:00:36.487Z,60.40
2022-10-04T23:03:24.581Z,60.90
2022-10-04T23:05:56.876Z,29.20
2022-10-04T23:08:29.698Z,32.40
2022-10-04T23:11:02.689Z,35.90
2022-10-04T23:13:35.091Z,19.80
2022-10-04T23:16:15.447Z,15.60
2022-10-04T23:18:47.944Z,16.00
2022-10-04T23:21:26.026Z,58.00
2022-10-04T23:24:02.687Z,36.70
2022-10-04T23:26:40.056Z,119.00
2022-10-04T23:29:18.773Z,70.80
2022-10-04T23:31:51.682Z,65.60
2022-10-04T23:34:30.148Z,37.10
2022-10-04T23:37:03.130Z,30.30
2022-10-04T23:39:37.487Z,98.70
2022-10-04T23:42:18.449Z,37.00
2022-10-04T23:44:53.071Z,27.10
2022-10-04T23:47:28.649Z,21.50
2022-10-04T23:50:01.215Z,16.40
2022-10-04T23:52:38.404Z,10.90
2022-10-04T23:55:20.498Z,10.30
2022-10-04T23:57:53.135Z,9.10
